F/V Lagardere II — FING — position and weather

sailwx.info

Track history (hours):
 
Tides and Currents Weather Stations Pressure Air Temp Water Temp Dewpoint Dewpoint Depression Visibility Wind Speed Wind Dir Waves Ship Positions

F/V Lagardere II

Last reported at 2017-Sep-19 13:31 UTC. Time now 2017-Sep-19 13:34 UTC.
Position N 44°49' W 001°20'.

; draft 3.7 m.

Type: Fishing. MMSI: 228110800.

Date/timePositionNaut miles runAvg speedWind from/ knotsBaromVisibWave heightAir tempDewpointWater temp
2017-Sep-19 13:31N 44°49' W 001°20'2 3.2
2017-Sep-19 13:00N 44°48' W 001°20'2 3.2
2017-Sep-19 12:30N 44°46' W 001°21'2 3.1
2017-Sep-19 12:00N 44°45' W 001°21'2 3.3
2017-Sep-19 11:30N 44°43' W 001°21'1 1.2
2017-Sep-19 11:00N 44°43' W 001°22'2 3.2
2017-Sep-19 10:30N 44°41' W 001°22'2 3.3
2017-Sep-19 10:00N 44°39' W 001°22'2 3.2
2017-Sep-19 09:30N 44°38' W 001°22'2 3.4
2017-Sep-19 09:00N 44°36' W 001°22'2 3.3
2017-Sep-19 08:31N 44°35' W 001°22'2 3.4
2017-Sep-19 08:01N 44°33' W 001°22'2 3.2
2017-Sep-19 07:30N 44°31' W 001°22'2 3.3
2017-Sep-19 07:00N 44°30' W 001°21'1 2.1
2017-Sep-19 06:30N 44°29' W 001°21'2 3.3
2017-Sep-19 06:00N 44°27' W 001°21'2 3.2
2017-Sep-19 05:30N 44°25' W 001°21'2 3.2
2017-Sep-19 05:00N 44°24' W 001°21'49 5.0
2017-Sep-18 19:13N 43°37' W 001°42'3 8.3
2017-Sep-18 18:48N 43°34' W 001°43'3 8.5
2017-Sep-18 18:30N 43°32' W 001°44'4 8.5
2017-Sep-18 18:00N 43°28' W 001°45'4 8.0
2017-Sep-18 17:31N 43°24' W 001°47'1 1.2
2017-Sep-18 16:46N 43°23' W 001°47'1 3.7
2017-Sep-18 16:30N 43°22' W 001°47'0 0.0
2017-Sep-18 16:01N 43°22' W 001°47'0 0.0
2017-Sep-18 15:30N 43°22' W 001°47'0 0.0
2017-Sep-18 15:00N 43°22' W 001°47'0 0.0
2017-Sep-18 14:30N 43°22' W 001°47'0 0.0
2017-Sep-18 14:00N 43°22' W 001°47'0 0.0
2017-Sep-18 13:30N 43°22' W 001°47'0 0.0
2017-Sep-18 13:00N 43°22' W 001°47'  
2017-Sep-13 21:00N 43°22' W 001°47'1 1.8
2017-Sep-13 20:30N 43°23' W 001°47'3 6.4
2017-Sep-13 20:00N 43°24' W 001°51'5 4.4
2017-Sep-13 18:51N 43°19' W 001°56'0 0.0
2017-Sep-13 18:28N 43°19' W 001°56'0 0.0
2017-Sep-13 18:00N 43°19' W 001°56'8 3.0
2017-Sep-13 15:25N 43°26' W 001°51'5 9.1
2017-Sep-13 14:54N 43°31' W 001°48'4 9.1
2017-Sep-13 14:29N 43°34' W 001°46'3 7.0
2017-Sep-13 14:00N 43°37' W 001°44'48 2.7
2017-Sep-12 20:36N 44°22' W 001°23'0 3.5
2017-Sep-12 20:30N 44°22' W 001°23'13 0.4
2017-Sep-11 07:55N 44°33' W 001°33'1 3.1
2017-Sep-11 07:29N 44°34' W 001°32'2 3.4
2017-Sep-11 07:00N 44°35' W 001°30'1 2.9
2017-Sep-11 06:30N 44°36' W 001°30'2 3.6
2017-Sep-11 06:00N 44°38' W 001°30'2 3.6
2017-Sep-11 05:30N 44°40' W 001°30'2 3.5
2017-Sep-11 04:58N 44°42' W 001°29'2 3.4
2017-Sep-11 04:30N 44°43' W 001°28'2 3.4
2017-Sep-11 04:00N 44°45' W 001°28'2 3.4
2017-Sep-11 03:30N 44°46' W 001°28'2 3.4
2017-Sep-11 03:01N 44°48' W 001°29'2 3.4
2017-Sep-11 02:30N 44°50' W 001°29'2 3.3
2017-Sep-11 02:00N 44°52' W 001°29'1 2.6
2017-Sep-11 01:30N 44°53' W 001°29'2 0.3
2017-Sep-10 18:23N 44°54' W 001°31'4 3.1
2017-Sep-10 17:15N 44°51' W 001°29'1 3.2
2017-Sep-10 17:00N 44°50' W 001°29'2 3.2
2017-Sep-10 16:30N 44°49' W 001°28'0 0.2
2017-Sep-10 16:00N 44°49' W 001°28'0 0.9
2017-Sep-10 15:30N 44°49' W 001°29'1 2.1
2017-Sep-10 15:00N 44°50' W 001°29'4 3.3
2017-Sep-10 13:56N 44°54' W 001°29'0 0.0
2017-Sep-10 08:31N 44°54' W 001°29'0 3.1
2017-Sep-10 08:22N 44°53' W 001°30'1 3.1
2017-Sep-10 08:00N 44°52' W 001°29'1 3.0
2017-Sep-10 07:30N 44°51' W 001°29'1 2.9
2017-Sep-10 07:00N 44°49' W 001°29'1 2.4
2017-Sep-10 06:30N 44°48' W 001°29'2 3.1
2017-Sep-10 06:00N 44°46' W 001°28'1 3.0
2017-Sep-10 05:30N 44°45' W 001°28'2 3.1
2017-Sep-10 05:00N 44°43' W 001°28'1 2.9
2017-Sep-10 04:30N 44°42' W 001°28'2 3.1
2017-Sep-10 04:00N 44°41' W 001°28'2 3.1
2017-Sep-10 03:30N 44°39' W 001°28'2 3.1
2017-Sep-10 03:01N 44°38' W 001°27'2 3.1
2017-Sep-10 02:30N 44°37' W 001°26'3 5.4
2017-Sep-10 02:00N 44°36' W 001°22'1 2.0
2017-Sep-10 01:30N 44°37' W 001°21'2 3.1
2017-Sep-10 01:00N 44°39' W 001°21'2 3.1
2017-Sep-10 00:30N 44°40' W 001°21'2 3.1
2017-Sep-10 00:00N 44°42' W 001°21'2 3.1
2017-Sep-09 23:30N 44°44' W 001°21'2 3.1
2017-Sep-09 23:00N 44°45' W 001°20'2 3.1
2017-Sep-09 22:30N 44°47' W 001°20'2 3.2
2017-Sep-09 22:00N 44°48' W 001°19'2 3.3
2017-Sep-09 21:30N 44°50' W 001°19'4 4.1
2017-Sep-09 20:38N 44°53' W 001°19'0 1.8
2017-Sep-09 20:30N 44°54' W 001°19'2 3.3
2017-Sep-09 20:00N 44°55' W 001°19'3 3.4
2017-Sep-09 19:16N 44°58' W 001°18'1 3.5
2017-Sep-09 18:59N 44°59' W 001°18'  
Track history (hours):
 
Tides and Currents Weather Stations Pressure Air Temp Water Temp Dewpoint Dewpoint Depression Visibility Wind Speed Wind Dir Waves Ship Positions

F/V Lagardere II

Last reported at 2017-Sep-19 13:31 UTC. Time now 2017-Sep-19 13:34 UTC.
Position N 44°49' W 001°20'.

; draft 3.7 m.

Type: Fishing. MMSI: 228110800.

Date/timePositionNaut miles runAvg speedWind from/ knotsBaromVisibWave heightAir tempDewpointWater temp
2017-Sep-19 13:31N 44°49' W 001°20'2 3.2
2017-Sep-19 13:00N 44°48' W 001°20'2 3.2
2017-Sep-19 12:30N 44°46' W 001°21'2 3.1
2017-Sep-19 12:00N 44°45' W 001°21'2 3.3
2017-Sep-19 11:30N 44°43' W 001°21'1 1.2
2017-Sep-19 11:00N 44°43' W 001°22'2 3.2
2017-Sep-19 10:30N 44°41' W 001°22'2 3.3
2017-Sep-19 10:00N 44°39' W 001°22'2 3.2
2017-Sep-19 09:30N 44°38' W 001°22'2 3.4
2017-Sep-19 09:00N 44°36' W 001°22'2 3.3
2017-Sep-19 08:31N 44°35' W 001°22'2 3.4
2017-Sep-19 08:01N 44°33' W 001°22'2 3.2
2017-Sep-19 07:30N 44°31' W 001°22'2 3.3
2017-Sep-19 07:00N 44°30' W 001°21'1 2.1
2017-Sep-19 06:30N 44°29' W 001°21'2 3.3
2017-Sep-19 06:00N 44°27' W 001°21'2 3.2
2017-Sep-19 05:30N 44°25' W 001°21'2 3.2
2017-Sep-19 05:00N 44°24' W 001°21'49 5.0
2017-Sep-18 19:13N 43°37' W 001°42'3 8.3
2017-Sep-18 18:48N 43°34' W 001°43'3 8.5
2017-Sep-18 18:30N 43°32' W 001°44'4 8.5
2017-Sep-18 18:00N 43°28' W 001°45'4 8.0
2017-Sep-18 17:31N 43°24' W 001°47'1 1.2
2017-Sep-18 16:46N 43°23' W 001°47'1 3.7
2017-Sep-18 16:30N 43°22' W 001°47'0 0.0
2017-Sep-18 16:01N 43°22' W 001°47'0 0.0
2017-Sep-18 15:30N 43°22' W 001°47'0 0.0
2017-Sep-18 15:00N 43°22' W 001°47'0 0.0
2017-Sep-18 14:30N 43°22' W 001°47'0 0.0
2017-Sep-18 14:00N 43°22' W 001°47'0 0.0
2017-Sep-18 13:30N 43°22' W 001°47'0 0.0
2017-Sep-18 13:00N 43°22' W 001°47'  
2017-Sep-13 21:00N 43°22' W 001°47'1 1.8
2017-Sep-13 20:30N 43°23' W 001°47'3 6.4
2017-Sep-13 20:00N 43°24' W 001°51'5 4.4
2017-Sep-13 18:51N 43°19' W 001°56'0 0.0
2017-Sep-13 18:28N 43°19' W 001°56'0 0.0
2017-Sep-13 18:00N 43°19' W 001°56'8 3.0
2017-Sep-13 15:25N 43°26' W 001°51'5 9.1
2017-Sep-13 14:54N 43°31' W 001°48'4 9.1
2017-Sep-13 14:29N 43°34' W 001°46'3 7.0
2017-Sep-13 14:00N 43°37' W 001°44'48 2.7
2017-Sep-12 20:36N 44°22' W 001°23'0 3.5
2017-Sep-12 20:30N 44°22' W 001°23'13 0.4
2017-Sep-11 07:55N 44°33' W 001°33'1 3.1
2017-Sep-11 07:29N 44°34' W 001°32'2 3.4
2017-Sep-11 07:00N 44°35' W 001°30'1 2.9
2017-Sep-11 06:30N 44°36' W 001°30'2 3.6
2017-Sep-11 06:00N 44°38' W 001°30'2 3.6
2017-Sep-11 05:30N 44°40' W 001°30'2 3.5
2017-Sep-11 04:58N 44°42' W 001°29'2 3.4
2017-Sep-11 04:30N 44°43' W 001°28'2 3.4
2017-Sep-11 04:00N 44°45' W 001°28'2 3.4
2017-Sep-11 03:30N 44°46' W 001°28'2 3.4
2017-Sep-11 03:01N 44°48' W 001°29'2 3.4
2017-Sep-11 02:30N 44°50' W 001°29'2 3.3
2017-Sep-11 02:00N 44°52' W 001°29'1 2.6
2017-Sep-11 01:30N 44°53' W 001°29'2 0.3
2017-Sep-10 18:23N 44°54' W 001°31'4 3.1
2017-Sep-10 17:15N 44°51' W 001°29'1 3.2
2017-Sep-10 17:00N 44°50' W 001°29'2 3.2
2017-Sep-10 16:30N 44°49' W 001°28'0 0.2
2017-Sep-10 16:00N 44°49' W 001°28'0 0.9
2017-Sep-10 15:30N 44°49' W 001°29'1 2.1
2017-Sep-10 15:00N 44°50' W 001°29'4 3.3
2017-Sep-10 13:56N 44°54' W 001°29'0 0.0
2017-Sep-10 08:31N 44°54' W 001°29'0 3.1
2017-Sep-10 08:22N 44°53' W 001°30'1 3.1
2017-Sep-10 08:00N 44°52' W 001°29'1 3.0
2017-Sep-10 07:30N 44°51' W 001°29'1 2.9
2017-Sep-10 07:00N 44°49' W 001°29'1 2.4
2017-Sep-10 06:30N 44°48' W 001°29'2 3.1
2017-Sep-10 06:00N 44°46' W 001°28'1 3.0
2017-Sep-10 05:30N 44°45' W 001°28'2 3.1
2017-Sep-10 05:00N 44°43' W 001°28'1 2.9
2017-Sep-10 04:30N 44°42' W 001°28'2 3.1
2017-Sep-10 04:00N 44°41' W 001°28'2 3.1
2017-Sep-10 03:30N 44°39' W 001°28'2 3.1
2017-Sep-10 03:01N 44°38' W 001°27'2 3.1
2017-Sep-10 02:30N 44°37' W 001°26'3 5.4
2017-Sep-10 02:00N 44°36' W 001°22'1 2.0
2017-Sep-10 01:30N 44°37' W 001°21'2 3.1
2017-Sep-10 01:00N 44°39' W 001°21'2 3.1
2017-Sep-10 00:30N 44°40' W 001°21'2 3.1
2017-Sep-10 00:00N 44°42' W 001°21'2 3.1
2017-Sep-09 23:30N 44°44' W 001°21'2 3.1
2017-Sep-09 23:00N 44°45' W 001°20'2 3.1
2017-Sep-09 22:30N 44°47' W 001°20'2 3.2
2017-Sep-09 22:00N 44°48' W 001°19'2 3.3
2017-Sep-09 21:30N 44°50' W 001°19'4 4.1
2017-Sep-09 20:38N 44°53' W 001°19'0 1.8
2017-Sep-09 20:30N 44°54' W 001°19'2 3.3
2017-Sep-09 20:00N 44°55' W 001°19'3 3.4
2017-Sep-09 19:16N 44°58' W 001°18'1 3.5
2017-Sep-09 18:59N 44°59' W 001°18'  

Dump ship's entire track history